sensor_id;sensor_type;location;lat;lon;timestamp;P1;durP1;ratioP1;P2;durP2;ratioP2
12721;SDS011;6425;50.316;8.114;2024-01-25T00:00:00;27.4;;;3.4;;
12721;SDS011;6425;50.316;8.114;2024-01-25T00:03:00;29.9;;;3.8;;
12721;SDS011;6425;50.316;8.114;2024-01-25T00:06:00;29.9;;;3.8;;
12721;SDS011;6425;50.316;8.114;2024-01-25T00:09:00;25.1;;;3.7;;
12721;SDS011;6425;50.316;8.114;2024-01-25T00:12:00;25.1;;;3.7;;
12721;SDS011;6425;50.316;8.114;2024-01-25T00:15:01;25.9;;;3.9;;
12721;SDS011;6425;50.316;8.114;2024-01-25T00:18:00;20.4;;;3.1;;
12721;SDS011;6425;50.316;8.114;2024-01-25T00:21:00;20.4;;;3.1;;
12721;SDS011;6425;50.316;8.114;2024-01-25T00:24:00;22;;;3.5;;
12721;SDS011;6425;50.316;8.114;2024-01-25T00:27:00;23.7;;;3.6;;
12721;SDS011;6425;50.316;8.114;2024-01-25T00:30:00;25.4;;;3.8;;
12721;SDS011;6425;50.316;8.114;2024-01-25T00:33:00;25;;;3.6;;
12721;SDS011;6425;50.316;8.114;2024-01-25T00:36:00;25;;;3.6;;
12721;SDS011;6425;50.316;8.114;2024-01-25T00:39:00;20.5;;;3.3;;
12721;SDS011;6425;50.316;8.114;2024-01-25T00:42:01;25.2;;;3.6;;
12721;SDS011;6425;50.316;8.114;2024-01-25T00:45:00;25.2;;;3.6;;
12721;SDS011;6425;50.316;8.114;2024-01-25T00:48:00;25.4;;;3.2;;
12721;SDS011;6425;50.316;8.114;2024-01-25T00:51:00;25.4;;;3.2;;
12721;SDS011;6425;50.316;8.114;2024-01-25T00:54:00;22;;;2.8;;
12721;SDS011;6425;50.316;8.114;2024-01-25T00:57:00;28.1;;;3.8;;
12721;SDS011;6425;50.316;8.114;2024-01-25T01:00:00;28.1;;;3.8;;
12721;SDS011;6425;50.316;8.114;2024-01-25T01:03:00;22;;;3.3;;
12721;SDS011;6425;50.316;8.114;2024-01-25T01:06:00;22;;;3.3;;
12721;SDS011;6425;50.316;8.114;2024-01-25T01:09:00;20.9;;;3.4;;
12721;SDS011;6425;50.316;8.114;2024-01-25T01:12:00;27.9;;;3.7;;
12721;SDS011;6425;50.316;8.114;2024-01-25T01:15:00;27.9;;;3.7;;
12721;SDS011;6425;50.316;8.114;2024-01-25T01:18:00;25.9;;;3.6;;
12721;SDS011;6425;50.316;8.114;2024-01-25T01:21:00;25.9;;;3.6;;
12721;SDS011;6425;50.316;8.114;2024-01-25T01:24:00;23.7;;;3.9;;
12721;SDS011;6425;50.316;8.114;2024-01-25T01:27:00;27.5;;;3.8;;
12721;SDS011;6425;50.316;8.114;2024-01-25T01:30:00;27.5;;;3.8;;
12721;SDS011;6425;50.316;8.114;2024-01-25T01:33:00;28.3;;;3.8;;
12721;SDS011;6425;50.316;8.114;2024-01-25T01:36:00;28.3;;;3.8;;
12721;SDS011;6425;50.316;8.114;2024-01-25T01:39:00;28.6;;;3.8;;
12721;SDS011;6425;50.316;8.114;2024-01-25T01:42:00;23;;;3.8;;
12721;SDS011;6425;50.316;8.114;2024-01-25T01:45:00;23;;;3.8;;
12721;SDS011;6425;50.316;8.114;2024-01-25T01:48:00;25.4;;;3.7;;
12721;SDS011;6425;50.316;8.114;2024-01-25T01:51:00;25.4;;;3.7;;
12721;SDS011;6425;50.316;8.114;2024-01-25T01:54:00;27.3;;;4;;
12721;SDS011;6425;50.316;8.114;2024-01-25T01:57:00;25.5;;;3.6;;
12721;SDS011;6425;50.316;8.114;2024-01-25T02:00:00;25.5;;;3.6;;
12721;SDS011;6425;50.316;8.114;2024-01-25T02:03:00;27.4;;;4;;
12721;SDS011;6425;50.316;8.114;2024-01-25T02:06:00;27.4;;;4;;
12721;SDS011;6425;50.316;8.114;2024-01-25T02:09:00;25.8;;;3.4;;
12721;SDS011;6425;50.316;8.114;2024-01-25T02:12:00;25.4;;;4.2;;
12721;SDS011;6425;50.316;8.114;2024-01-25T02:15:00;25.4;;;4.2;;
12721;SDS011;6425;50.316;8.114;2024-01-25T02:18:00;26.8;;;4.3;;
12721;SDS011;6425;50.316;8.114;2024-01-25T02:21:00;26.8;;;4.3;;
12721;SDS011;6425;50.316;8.114;2024-01-25T02:24:00;18.9;;;3;;
12721;SDS011;6425;50.316;8.114;2024-01-25T02:27:00;27;;;3.9;;
12721;SDS011;6425;50.316;8.114;2024-01-25T02:30:00;27;;;3.9;;
12721;SDS011;6425;50.316;8.114;2024-01-25T02:33:00;24.5;;;4;;
12721;SDS011;6425;50.316;8.114;2024-01-25T02:36:00;24.5;;;4;;
12721;SDS011;6425;50.316;8.114;2024-01-25T02:39:00;27.2;;;4.1;;
12721;SDS011;6425;50.316;8.114;2024-01-25T02:42:00;23.2;;;4.4;;
12721;SDS011;6425;50.316;8.114;2024-01-25T02:45:00;23.2;;;4.4;;
12721;SDS011;6425;50.316;8.114;2024-01-25T02:48:00;26.6;;;3.5;;
12721;SDS011;6425;50.316;8.114;2024-01-25T02:51:00;26.6;;;3.5;;
12721;SDS011;6425;50.316;8.114;2024-01-25T02:54:00;26;;;4.3;;
12721;SDS011;6425;50.316;8.114;2024-01-25T02:57:00;22.3;;;4.1;;
12721;SDS011;6425;50.316;8.114;2024-01-25T03:00:00;22.3;;;4.1;;
12721;SDS011;6425;50.316;8.114;2024-01-25T03:03:00;22.4;;;3.5;;
12721;SDS011;6425;50.316;8.114;2024-01-25T03:06:00;22.4;;;3.5;;
12721;SDS011;6425;50.316;8.114;2024-01-25T03:09:00;32.2;;;4.4;;
12721;SDS011;6425;50.316;8.114;2024-01-25T03:12:00;32.9;;;4.3;;
12721;SDS011;6425;50.316;8.114;2024-01-25T03:15:00;32.9;;;4.3;;
12721;SDS011;6425;50.316;8.114;2024-01-25T03:18:00;23.3;;;3.7;;
12721;SDS011;6425;50.316;8.114;2024-01-25T03:21:00;23.3;;;3.7;;
12721;SDS011;6425;50.316;8.114;2024-01-25T03:24:00;25.8;;;5;;
12721;SDS011;6425;50.316;8.114;2024-01-25T03:27:00;26.8;;;3.9;;
12721;SDS011;6425;50.316;8.114;2024-01-25T03:30:00;26.8;;;3.9;;
12721;SDS011;6425;50.316;8.114;2024-01-25T03:33:00;20.9;;;3.8;;
12721;SDS011;6425;50.316;8.114;2024-01-25T03:36:01;29.7;;;4.7;;
12721;SDS011;6425;50.316;8.114;2024-01-25T03:39:00;32.7;;;5.1;;
12721;SDS011;6425;50.316;8.114;2024-01-25T03:42:00;28.7;;;4.2;;
12721;SDS011;6425;50.316;8.114;2024-01-25T03:45:00;28.7;;;4.2;;
12721;SDS011;6425;50.316;8.114;2024-01-25T03:48:00;28;;;4.2;;
12721;SDS011;6425;50.316;8.114;2024-01-25T03:51:01;29.6;;;4.4;;
12721;SDS011;6425;50.316;8.114;2024-01-25T03:54:00;29.6;;;4.4;;
12721;SDS011;6425;50.316;8.114;2024-01-25T03:57:00;31.3;;;4.9;;
12721;SDS011;6425;50.316;8.114;2024-01-25T04:00:00;31.3;;;4.9;;
12721;SDS011;6425;50.316;8.114;2024-01-25T04:03:00;27;;;4.6;;
12721;SDS011;6425;50.316;8.114;2024-01-25T04:06:00;25.1;;;4.7;;
12721;SDS011;6425;50.316;8.114;2024-01-25T04:09:00;25.1;;;4.7;;
12721;SDS011;6425;50.316;8.114;2024-01-25T04:12:00;20.1;;;3.5;;
12721;SDS011;6425;50.316;8.114;2024-01-25T04:15:00;20.1;;;3.5;;
12721;SDS011;6425;50.316;8.114;2024-01-25T04:18:00;33.1;;;3.6;;
12721;SDS011;6425;50.316;8.114;2024-01-25T04:21:00;24.3;;;4.3;;
12721;SDS011;6425;50.316;8.114;2024-01-25T04:24:00;24.3;;;4.3;;
12721;SDS011;6425;50.316;8.114;2024-01-25T04:27:00;23.5;;;4.5;;
12721;SDS011;6425;50.316;8.114;2024-01-25T04:30:01;23.5;;;4.5;;
12721;SDS011;6425;50.316;8.114;2024-01-25T04:33:00;24.5;;;4.3;;
12721;SDS011;6425;50.316;8.114;2024-01-25T04:36:00;24.5;;;4.6;;
12721;SDS011;6425;50.316;8.114;2024-01-25T04:39:00;24.5;;;4.6;;
12721;SDS011;6425;50.316;8.114;2024-01-25T04:42:00;26.1;;;5.1;;
12721;SDS011;6425;50.316;8.114;2024-01-25T04:45:00;26.1;;;5.1;;
12721;SDS011;6425;50.316;8.114;2024-01-25T04:48:00;30.7;;;4.3;;
12721;SDS011;6425;50.316;8.114;2024-01-25T04:51:01;30.4;;;4.8;;
12721;SDS011;6425;50.316;8.114;2024-01-25T04:54:00;30.4;;;4.8;;
12721;SDS011;6425;50.316;8.114;2024-01-25T04:57:00;32.8;;;5.5;;
12721;SDS011;6425;50.316;8.114;2024-01-25T05:00:00;32.8;;;5.5;;
12721;SDS011;6425;50.316;8.114;2024-01-25T05:03:00;28.1;;;4.5;;
12721;SDS011;6425;50.316;8.114;2024-01-25T05:06:00;29.3;;;5.7;;
12721;SDS011;6425;50.316;8.114;2024-01-25T05:09:00;29.3;;;5.7;;
12721;SDS011;6425;50.316;8.114;2024-01-25T05:12:00;34.7;;;5.4;;
12721;SDS011;6425;50.316;8.114;2024-01-25T05:15:00;34.7;;;5.4;;
12721;SDS011;6425;50.316;8.114;2024-01-25T05:18:00;32.6;;;5.4;;
12721;SDS011;6425;50.316;8.114;2024-01-25T05:21:00;27.9;;;4.9;;
12721;SDS011;6425;50.316;8.114;2024-01-25T05:24:00;27.9;;;4.9;;
12721;SDS011;6425;50.316;8.114;2024-01-25T05:27:00;30.7;;;4.9;;
12721;SDS011;6425;50.316;8.114;2024-01-25T05:30:00;30.7;;;4.9;;
12721;SDS011;6425;50.316;8.114;2024-01-25T05:33:00;33.5;;;5.3;;
12721;SDS011;6425;50.316;8.114;2024-01-25T05:36:00;29.5;;;5.9;;
12721;SDS011;6425;50.316;8.114;2024-01-25T05:39:00;29.5;;;5.9;;
12721;SDS011;6425;50.316;8.114;2024-01-25T05:42:00;38.9;;;6.3;;
12721;SDS011;6425;50.316;8.114;2024-01-25T05:45:00;38.9;;;6.3;;
12721;SDS011;6425;50.316;8.114;2024-01-25T05:48:00;35.5;;;5.9;;
12721;SDS011;6425;50.316;8.114;2024-01-25T05:51:00;33.9;;;5.5;;
12721;SDS011;6425;50.316;8.114;2024-01-25T05:54:00;33.9;;;5.5;;
12721;SDS011;6425;50.316;8.114;2024-01-25T05:57:00;33;;;5.9;;
12721;SDS011;6425;50.316;8.114;2024-01-25T06:00:00;33;;;5.9;;
12721;SDS011;6425;50.316;8.114;2024-01-25T06:03:00;33;;;5.7;;
12721;SDS011;6425;50.316;8.114;2024-01-25T06:06:00;28;;;5.3;;
12721;SDS011;6425;50.316;8.114;2024-01-25T06:09:00;28;;;5.3;;
12721;SDS011;6425;50.316;8.114;2024-01-25T06:12:00;34.1;;;6.1;;
12721;SDS011;6425;50.316;8.114;2024-01-25T06:15:00;34.1;;;6.1;;
12721;SDS011;6425;50.316;8.114;2024-01-25T06:18:00;29.2;;;6.2;;
12721;SDS011;6425;50.316;8.114;2024-01-25T06:21:00;41.3;;;7.5;;
12721;SDS011;6425;50.316;8.114;2024-01-25T06:24:00;41.3;;;7.5;;
12721;SDS011;6425;50.316;8.114;2024-01-25T06:27:00;36.3;;;6;;
12721;SDS011;6425;50.316;8.114;2024-01-25T06:30:00;38.6;;;6.1;;
12721;SDS011;6425;50.316;8.114;2024-01-25T06:33:00;40.9;;;6.3;;
12721;SDS011;6425;50.316;8.114;2024-01-25T06:36:00;32.7;;;6.2;;
12721;SDS011;6425;50.316;8.114;2024-01-25T06:39:00;32.7;;;6.2;;
12721;SDS011;6425;50.316;8.114;2024-01-25T06:42:00;28.6;;;5.6;;
12721;SDS011;6425;50.316;8.114;2024-01-25T06:45:00;39.5;;;6.3;;
12721;SDS011;6425;50.316;8.114;2024-01-25T06:48:00;39.5;;;6.3;;
12721;SDS011;6425;50.316;8.114;2024-01-25T06:51:00;39.7;;;6.7;;
12721;SDS011;6425;50.316;8.114;2024-01-25T06:54:00;39.7;;;6.7;;
12721;SDS011;6425;50.316;8.114;2024-01-25T06:57:00;38.5;;;6.7;;
12721;SDS011;6425;50.316;8.114;2024-01-25T07:00:00;33.5;;;9.9;;
12721;SDS011;6425;50.316;8.114;2024-01-25T07:03:00;33.5;;;9.9;;
12721;SDS011;6425;50.316;8.114;2024-01-25T07:06:00;44.7;;;10.7;;
12721;SDS011;6425;50.316;8.114;2024-01-25T07:09:00;44.7;;;10.7;;
12721;SDS011;6425;50.316;8.114;2024-01-25T07:12:00;39.3;;;6.6;;
12721;SDS011;6425;50.316;8.114;2024-01-25T07:15:00;33.6;;;6.3;;
12721;SDS011;6425;50.316;8.114;2024-01-25T07:18:00;33.6;;;6.3;;
12721;SDS011;6425;50.316;8.114;2024-01-25T07:21:00;31;;;5.9;;
12721;SDS011;6425;50.316;8.114;2024-01-25T07:24:01;31;;;5.9;;
12721;SDS011;6425;50.316;8.114;2024-01-25T07:27:00;35.1;;;6.1;;
12721;SDS011;6425;50.316;8.114;2024-01-25T07:30:00;40;;;6.3;;
12721;SDS011;6425;50.316;8.114;2024-01-25T07:33:00;40;;;6.3;;
12721;SDS011;6425;50.316;8.114;2024-01-25T07:36:00;33.4;;;8;;
12721;SDS011;6425;50.316;8.114;2024-01-25T07:39:00;33.4;;;8;;
12721;SDS011;6425;50.316;8.114;2024-01-25T07:42:00;39.6;;;8.2;;
12721;SDS011;6425;50.316;8.114;2024-01-25T07:45:00;36.3;;;7.3;;
12721;SDS011;6425;50.316;8.114;2024-01-25T07:48:00;36.3;;;7.3;;
12721;SDS011;6425;50.316;8.114;2024-01-25T07:51:00;35;;;6.7;;
12721;SDS011;6425;50.316;8.114;2024-01-25T07:54:00;35;;;6.7;;
12721;SDS011;6425;50.316;8.114;2024-01-25T07:57:00;38.1;;;6.2;;
12721;SDS011;6425;50.316;8.114;2024-01-25T08:00:00;37.9;;;7.1;;
12721;SDS011;6425;50.316;8.114;2024-01-25T08:03:01;37.9;;;7.1;;
12721;SDS011;6425;50.316;8.114;2024-01-25T08:06:01;42;;;6.9;;
12721;SDS011;6425;50.316;8.114;2024-01-25T08:09:00;42;;;6.9;;
12721;SDS011;6425;50.316;8.114;2024-01-25T08:12:00;40.9;;;7.2;;
12721;SDS011;6425;50.316;8.114;2024-01-25T08:15:00;33.6;;;6.3;;
12721;SDS011;6425;50.316;8.114;2024-01-25T08:18:00;33.6;;;6.3;;
12721;SDS011;6425;50.316;8.114;2024-01-25T08:21:00;37.9;;;6.7;;
12721;SDS011;6425;50.316;8.114;2024-01-25T08:24:00;37.9;;;6.7;;
12721;SDS011;6425;50.316;8.114;2024-01-25T08:27:00;39.2;;;7.2;;
12721;SDS011;6425;50.316;8.114;2024-01-25T08:30:00;34.7;;;7.2;;
12721;SDS011;6425;50.316;8.114;2024-01-25T08:33:00;34.7;;;7.2;;
12721;SDS011;6425;50.316;8.114;2024-01-25T08:36:00;46;;;7.9;;
12721;SDS011;6425;50.316;8.114;2024-01-25T08:39:00;46;;;7.9;;
12721;SDS011;6425;50.316;8.114;2024-01-25T08:42:00;40.5;;;7;;
12721;SDS011;6425;50.316;8.114;2024-01-25T08:45:00;31.8;;;6.1;;
12721;SDS011;6425;50.316;8.114;2024-01-25T08:48:00;31.8;;;6.1;;
12721;SDS011;6425;50.316;8.114;2024-01-25T08:51:00;32.1;;;5.8;;
12721;SDS011;6425;50.316;8.114;2024-01-25T08:54:00;32.1;;;5.8;;
12721;SDS011;6425;50.316;8.114;2024-01-25T08:57:00;34.5;;;5.7;;
12721;SDS011;6425;50.316;8.114;2024-01-25T09:00:00;37.2;;;6.1;;
12721;SDS011;6425;50.316;8.114;2024-01-25T09:03:00;37.2;;;6.1;;
12721;SDS011;6425;50.316;8.114;2024-01-25T09:06:00;33;;;5.9;;
12721;SDS011;6425;50.316;8.114;2024-01-25T09:09:00;33;;;5.9;;
12721;SDS011;6425;50.316;8.114;2024-01-25T09:12:00;30.6;;;5.7;;
12721;SDS011;6425;50.316;8.114;2024-01-25T09:15:00;39.7;;;5.9;;
12721;SDS011;6425;50.316;8.114;2024-01-25T09:18:00;39.7;;;5.9;;
12721;SDS011;6425;50.316;8.114;2024-01-25T09:21:00;35.6;;;5.8;;
12721;SDS011;6425;50.316;8.114;2024-01-25T09:24:00;33;;;5.5;;
12721;SDS011;6425;50.316;8.114;2024-01-25T09:27:00;30.4;;;5.3;;
12721;SDS011;6425;50.316;8.114;2024-01-25T09:30:00;34.7;;;5.3;;
12721;SDS011;6425;50.316;8.114;2024-01-25T09:33:00;34.7;;;5.3;;
12721;SDS011;6425;50.316;8.114;2024-01-25T09:36:00;27;;;4.6;;
12721;SDS011;6425;50.316;8.114;2024-01-25T09:39:00;27;;;5.6;;
12721;SDS011;6425;50.316;8.114;2024-01-25T09:42:00;27;;;5.6;;
12721;SDS011;6425;50.316;8.114;2024-01-25T09:45:00;33.3;;;5.4;;
12721;SDS011;6425;50.316;8.114;2024-01-25T09:48:00;33.3;;;5.4;;
12721;SDS011;6425;50.316;8.114;2024-01-25T09:51:01;27.5;;;5.1;;
12721;SDS011;6425;50.316;8.114;2024-01-25T09:54:00;24.8;;;4.3;;
12721;SDS011;6425;50.316;8.114;2024-01-25T09:57:00;24.8;;;4.3;;
12721;SDS011;6425;50.316;8.114;2024-01-25T10:00:00;34.1;;;4.9;;
12721;SDS011;6425;50.316;8.114;2024-01-25T10:03:00;34.1;;;4.9;;
12721;SDS011;6425;50.316;8.114;2024-01-25T10:06:00;23.5;;;4.1;;
12721;SDS011;6425;50.316;8.114;2024-01-25T10:09:00;32.1;;;4.5;;
12721;SDS011;6425;50.316;8.114;2024-01-25T10:12:00;32.1;;;4.5;;
12721;SDS011;6425;50.316;8.114;2024-01-25T10:15:00;25.2;;;4.4;;
12721;SDS011;6425;50.316;8.114;2024-01-25T10:18:00;25.2;;;4.4;;
12721;SDS011;6425;50.316;8.114;2024-01-25T10:21:00;22.5;;;3.2;;
12721;SDS011;6425;50.316;8.114;2024-01-25T10:24:00;25.4;;;4.6;;
12721;SDS011;6425;50.316;8.114;2024-01-25T10:27:01;25.4;;;4.6;;
12721;SDS011;6425;50.316;8.114;2024-01-25T10:30:00;25.6;;;4.5;;
12721;SDS011;6425;50.316;8.114;2024-01-25T10:33:00;25.6;;;4.5;;
12721;SDS011;6425;50.316;8.114;2024-01-25T10:36:00;27.5;;;4.2;;
12721;SDS011;6425;50.316;8.114;2024-01-25T10:39:00;28.6;;;4.9;;
12721;SDS011;6425;50.316;8.114;2024-01-25T10:42:00;28.6;;;4.9;;
12721;SDS011;6425;50.316;8.114;2024-01-25T10:45:00;27.2;;;4.1;;
12721;SDS011;6425;50.316;8.114;2024-01-25T10:48:00;27.2;;;4.1;;
12721;SDS011;6425;50.316;8.114;2024-01-25T10:51:00;25.8;;;4.9;;
12721;SDS011;6425;50.316;8.114;2024-01-25T10:54:00;25;;;4.1;;
12721;SDS011;6425;50.316;8.114;2024-01-25T10:57:00;25;;;4.1;;
12721;SDS011;6425;50.316;8.114;2024-01-25T11:00:00;23.4;;;4.3;;
12721;SDS011;6425;50.316;8.114;2024-01-25T11:03:01;23.4;;;4.3;;
12721;SDS011;6425;50.316;8.114;2024-01-25T11:06:07;24.4;;;4.6;;
12721;SDS011;6425;50.316;8.114;2024-01-25T11:09:03;22.6;;;4;;
12721;SDS011;6425;50.316;8.114;2024-01-25T11:12:00;22.6;;;4;;
12721;SDS011;6425;50.316;8.114;2024-01-25T11:15:06;24.7;;;5.4;;
12721;SDS011;6425;50.316;8.114;2024-01-25T11:18:00;24.7;;;5.4;;
12721;SDS011;6425;50.316;8.114;2024-01-25T11:21:00;20.9;;;4.6;;
12721;SDS011;6425;50.316;8.114;2024-01-25T11:24:00;21.7;;;5.1;;
12721;SDS011;6425;50.316;8.114;2024-01-25T11:27:00;21.7;;;5.1;;
12721;SDS011;6425;50.316;8.114;2024-01-25T11:30:01;20.7;;;5;;
12721;SDS011;6425;50.316;8.114;2024-01-25T11:33:00;20.7;;;5;;
12721;SDS011;6425;50.316;8.114;2024-01-25T11:36:00;19.8;;;4.1;;
12721;SDS011;6425;50.316;8.114;2024-01-25T11:39:00;19.4;;;4.7;;
12721;SDS011;6425;50.316;8.114;2024-01-25T11:42:00;19.4;;;4.7;;
12721;SDS011;6425;50.316;8.114;2024-01-25T11:45:00;22.5;;;5;;
12721;SDS011;6425;50.316;8.114;2024-01-25T11:48:00;22.5;;;5;;
12721;SDS011;6425;50.316;8.114;2024-01-25T11:51:00;21.8;;;4.3;;
12721;SDS011;6425;50.316;8.114;2024-01-25T11:54:00;21.1;;;5;;
12721;SDS011;6425;50.316;8.114;2024-01-25T11:57:00;21.1;;;5;;
12721;SDS011;6425;50.316;8.114;2024-01-25T12:00:00;18.7;;;4.6;;
12721;SDS011;6425;50.316;8.114;2024-01-25T12:03:00;18.7;;;4.6;;
12721;SDS011;6425;50.316;8.114;2024-01-25T12:06:01;19.5;;;5.2;;
12721;SDS011;6425;50.316;8.114;2024-01-25T12:09:07;23.6;;;4.9;;
12721;SDS011;6425;50.316;8.114;2024-01-25T12:12:00;23.6;;;4.9;;
12721;SDS011;6425;50.316;8.114;2024-01-25T12:15:00;24.7;;;5.7;;
12721;SDS011;6425;50.316;8.114;2024-01-25T12:18:00;24.7;;;5.7;;
12721;SDS011;6425;50.316;8.114;2024-01-25T12:21:00;24.1;;;5.5;;
12721;SDS011;6425;50.316;8.114;2024-01-25T12:24:00;18.6;;;5.6;;
12721;SDS011;6425;50.316;8.114;2024-01-25T12:27:00;18.6;;;5.6;;
12721;SDS011;6425;50.316;8.114;2024-01-25T12:30:00;20.4;;;6;;
12721;SDS011;6425;50.316;8.114;2024-01-25T12:33:00;21.5;;;5.7;;
12721;SDS011;6425;50.316;8.114;2024-01-25T12:36:00;22.6;;;5.4;;
12721;SDS011;6425;50.316;8.114;2024-01-25T12:39:00;20;;;5.9;;
12721;SDS011;6425;50.316;8.114;2024-01-25T12:42:00;20;;;5.9;;
12721;SDS011;6425;50.316;8.114;2024-01-25T12:45:00;20.5;;;5.7;;
12721;SDS011;6425;50.316;8.114;2024-01-25T12:48:00;22;;;6.7;;
12721;SDS011;6425;50.316;8.114;2024-01-25T12:51:00;22;;;6.7;;
12721;SDS011;6425;50.316;8.114;2024-01-25T12:54:00;19.2;;;6.5;;
12721;SDS011;6425;50.316;8.114;2024-01-25T12:57:00;19.2;;;6.5;;
12721;SDS011;6425;50.316;8.114;2024-01-25T13:00:00;20.5;;;6.2;;
12721;SDS011;6425;50.316;8.114;2024-01-25T13:03:00;20.9;;;8.5;;
12721;SDS011;6425;50.316;8.114;2024-01-25T13:06:01;20.9;;;8.5;;
12721;SDS011;6425;50.316;8.114;2024-01-25T13:09:00;19.8;;;6.5;;
12721;SDS011;6425;50.316;8.114;2024-01-25T13:12:00;19.8;;;6.5;;
12721;SDS011;6425;50.316;8.114;2024-01-25T13:15:00;20.6;;;6;;
12721;SDS011;6425;50.316;8.114;2024-01-25T13:18:01;20.5;;;5.9;;
12721;SDS011;6425;50.316;8.114;2024-01-25T13:21:00;20.5;;;5.9;;
12721;SDS011;6425;50.316;8.114;2024-01-25T13:24:00;21.8;;;5.4;;
12721;SDS011;6425;50.316;8.114;2024-01-25T13:27:00;21.8;;;5.4;;
12721;SDS011;6425;50.316;8.114;2024-01-25T13:30:00;17.9;;;5.6;;
12721;SDS011;6425;50.316;8.114;2024-01-25T13:33:00;18.4;;;5.6;;
12721;SDS011;6425;50.316;8.114;2024-01-25T13:36:00;18.4;;;5.6;;
12721;SDS011;6425;50.316;8.114;2024-01-25T13:39:00;21.2;;;5.8;;
12721;SDS011;6425;50.316;8.114;2024-01-25T13:42:00;21.2;;;5.8;;
12721;SDS011;6425;50.316;8.114;2024-01-25T13:45:00;20.9;;;6.8;;
12721;SDS011;6425;50.316;8.114;2024-01-25T13:48:00;23.4;;;6.4;;
12721;SDS011;6425;50.316;8.114;2024-01-25T13:51:00;23.4;;;6.4;;
12721;SDS011;6425;50.316;8.114;2024-01-25T13:54:01;18.1;;;6.4;;
12721;SDS011;6425;50.316;8.114;2024-01-25T13:57:00;18.1;;;6.4;;
12721;SDS011;6425;50.316;8.114;2024-01-25T14:00:00;21.9;;;5;;
12721;SDS011;6425;50.316;8.114;2024-01-25T14:03:00;25.5;;;8.2;;
12721;SDS011;6425;50.316;8.114;2024-01-25T14:06:00;25.5;;;8.2;;
12721;SDS011;6425;50.316;8.114;2024-01-25T14:09:00;21;;;6;;
12721;SDS011;6425;50.316;8.114;2024-01-25T14:12:00;21;;;6;;
12721;SDS011;6425;50.316;8.114;2024-01-25T14:15:00;22.9;;;6.5;;
12721;SDS011;6425;50.316;8.114;2024-01-25T14:18:00;17.2;;;5;;
12721;SDS011;6425;50.316;8.114;2024-01-25T14:21:00;17.2;;;5;;
12721;SDS011;6425;50.316;8.114;2024-01-25T14:24:00;20.6;;;7;;
12721;SDS011;6425;50.316;8.114;2024-01-25T14:27:00;20.6;;;7;;
12721;SDS011;6425;50.316;8.114;2024-01-25T14:30:00;16.6;;;5.4;;
12721;SDS011;6425;50.316;8.114;2024-01-25T14:33:00;20.2;;;4.8;;
12721;SDS011;6425;50.316;8.114;2024-01-25T14:36:00;20.2;;;4.8;;
12721;SDS011;6425;50.316;8.114;2024-01-25T14:39:00;22.1;;;5.4;;
12721;SDS011;6425;50.316;8.114;2024-01-25T14:42:00;22.1;;;5.4;;
12721;SDS011;6425;50.316;8.114;2024-01-25T14:45:00;19.3;;;4.7;;
12721;SDS011;6425;50.316;8.114;2024-01-25T14:48:00;18.5;;;4.4;;
12721;SDS011;6425;50.316;8.114;2024-01-25T14:51:00;18.5;;;4.4;;
12721;SDS011;6425;50.316;8.114;2024-01-25T14:54:00;15.6;;;3.7;;
12721;SDS011;6425;50.316;8.114;2024-01-25T14:57:00;15.6;;;3.7;;
12721;SDS011;6425;50.316;8.114;2024-01-25T15:00:00;18.5;;;4.8;;
12721;SDS011;6425;50.316;8.114;2024-01-25T15:03:00;21.6;;;4.5;;
12721;SDS011;6425;50.316;8.114;2024-01-25T15:06:00;21.6;;;4.5;;
12721;SDS011;6425;50.316;8.114;2024-01-25T15:09:00;20.6;;;4.7;;
12721;SDS011;6425;50.316;8.114;2024-01-25T15:12:00;20.6;;;4.7;;
12721;SDS011;6425;50.316;8.114;2024-01-25T15:15:00;16.1;;;4.9;;
12721;SDS011;6425;50.316;8.114;2024-01-25T15:18:00;19.3;;;4.9;;
12721;SDS011;6425;50.316;8.114;2024-01-25T15:21:00;19.3;;;4.9;;
12721;SDS011;6425;50.316;8.114;2024-01-25T15:24:00;22.2;;;4.9;;
12721;SDS011;6425;50.316;8.114;2024-01-25T15:27:00;22.2;;;4.9;;
12721;SDS011;6425;50.316;8.114;2024-01-25T15:30:00;16.9;;;5.9;;
12721;SDS011;6425;50.316;8.114;2024-01-25T15:33:00;25.6;;;6.1;;
12721;SDS011;6425;50.316;8.114;2024-01-25T15:36:00;25.6;;;6.1;;
12721;SDS011;6425;50.316;8.114;2024-01-25T15:44:26;24.4;;;5.1;;
12721;SDS011;6425;50.316;8.114;2024-01-25T15:44:27;24.4;;;5.1;;
12721;SDS011;6425;50.316;8.114;2024-01-25T15:45:00;24.1;;;4.5;;
12721;SDS011;6425;50.316;8.114;2024-01-25T15:48:00;15.9;;;4.4;;
12721;SDS011;6425;50.316;8.114;2024-01-25T15:51:00;15.9;;;4.4;;
12721;SDS011;6425;50.316;8.114;2024-01-25T15:54:00;19.3;;;5.4;;
12721;SDS011;6425;50.316;8.114;2024-01-25T15:57:00;21.4;;;4.8;;
12721;SDS011;6425;50.316;8.114;2024-01-25T16:00:00;21.4;;;4.8;;
12721;SDS011;6425;50.316;8.114;2024-01-25T16:03:00;23.3;;;6.1;;
12721;SDS011;6425;50.316;8.114;2024-01-25T16:06:00;23.3;;;6.1;;
12721;SDS011;6425;50.316;8.114;2024-01-25T16:09:01;24.8;;;7.5;;
12721;SDS011;6425;50.316;8.114;2024-01-25T16:12:00;43.1;;;17.7;;
12721;SDS011;6425;50.316;8.114;2024-01-25T16:15:00;43.1;;;17.7;;
12721;SDS011;6425;50.316;8.114;2024-01-25T16:18:00;27.8;;;8.4;;
12721;SDS011;6425;50.316;8.114;2024-01-25T16:21:00;27.8;;;8.4;;
12721;SDS011;6425;50.316;8.114;2024-01-25T16:24:00;19.5;;;5;;
12721;SDS011;6425;50.316;8.114;2024-01-25T16:27:00;17.1;;;4.7;;
12721;SDS011;6425;50.316;8.114;2024-01-25T16:30:00;17.1;;;4.7;;
12721;SDS011;6425;50.316;8.114;2024-01-25T16:33:00;22.2;;;5.3;;
12721;SDS011;6425;50.316;8.114;2024-01-25T16:36:00;22.2;;;5.3;;
12721;SDS011;6425;50.316;8.114;2024-01-25T16:39:00;22.9;;;5.6;;
12721;SDS011;6425;50.316;8.114;2024-01-25T16:42:00;22.9;;;6;;
12721;SDS011;6425;50.316;8.114;2024-01-25T16:45:01;22.9;;;6;;
12721;SDS011;6425;50.316;8.114;2024-01-25T16:48:00;20.8;;;6.7;;
12721;SDS011;6425;50.316;8.114;2024-01-25T16:51:00;20.8;;;6.7;;
12721;SDS011;6425;50.316;8.114;2024-01-25T16:54:00;21.6;;;5.6;;
12721;SDS011;6425;50.316;8.114;2024-01-25T16:57:00;20.1;;;5;;
12721;SDS011;6425;50.316;8.114;2024-01-25T17:00:00;20.1;;;5;;
12721;SDS011;6425;50.316;8.114;2024-01-25T17:03:00;22.1;;;7.1;;
12721;SDS011;6425;50.316;8.114;2024-01-25T17:06:00;22.1;;;7.1;;
12721;SDS011;6425;50.316;8.114;2024-01-25T17:09:01;16.5;;;4;;
12721;SDS011;6425;50.316;8.114;2024-01-25T17:12:00;18.6;;;4.8;;
12721;SDS011;6425;50.316;8.114;2024-01-25T17:15:00;18.6;;;4.8;;
12721;SDS011;6425;50.316;8.114;2024-01-25T17:18:00;16.8;;;4.3;;
12721;SDS011;6425;50.316;8.114;2024-01-25T17:21:02;16.8;;;4.3;;
12721;SDS011;6425;50.316;8.114;2024-01-25T17:24:00;17.9;;;4.2;;
12721;SDS011;6425;50.316;8.114;2024-01-25T17:27:00;17;;;3.8;;
12721;SDS011;6425;50.316;8.114;2024-01-25T17:30:00;17;;;3.8;;
12721;SDS011;6425;50.316;8.114;2024-01-25T17:33:02;25.5;;;6;;
12721;SDS011;6425;50.316;8.114;2024-01-25T17:36:00;25.5;;;6;;
12721;SDS011;6425;50.316;8.114;2024-01-25T17:39:00;20.4;;;5.4;;
12721;SDS011;6425;50.316;8.114;2024-01-25T17:42:00;16.9;;;4.7;;
12721;SDS011;6425;50.316;8.114;2024-01-25T17:45:00;16.9;;;4.7;;
12721;SDS011;6425;50.316;8.114;2024-01-25T17:48:00;20.8;;;4.4;;
12721;SDS011;6425;50.316;8.114;2024-01-25T17:51:00;20.8;;;4.4;;
12721;SDS011;6425;50.316;8.114;2024-01-25T17:54:00;20.9;;;5.1;;
12721;SDS011;6425;50.316;8.114;2024-01-25T17:57:00;19.6;;;3.9;;
12721;SDS011;6425;50.316;8.114;2024-01-25T18:00:00;19.6;;;3.9;;
12721;SDS011;6425;50.316;8.114;2024-01-25T18:03:00;19.3;;;3.7;;
12721;SDS011;6425;50.316;8.114;2024-01-25T18:06:00;19.3;;;3.7;;
12721;SDS011;6425;50.316;8.114;2024-01-25T18:09:01;19;;;3.9;;
12721;SDS011;6425;50.316;8.114;2024-01-25T18:12:00;21.7;;;3.5;;
12721;SDS011;6425;50.316;8.114;2024-01-25T18:15:00;21.7;;;3.5;;
12721;SDS011;6425;50.316;8.114;2024-01-25T18:18:00;18;;;3.5;;
12721;SDS011;6425;50.316;8.114;2024-01-25T18:21:02;18;;;3.5;;
12721;SDS011;6425;50.316;8.114;2024-01-25T18:24:00;24.3;;;3.7;;
12721;SDS011;6425;50.316;8.114;2024-01-25T18:27:00;22.4;;;5;;
12721;SDS011;6425;50.316;8.114;2024-01-25T18:30:00;22.4;;;5;;
12721;SDS011;6425;50.316;8.114;2024-01-25T18:33:00;19.6;;;4.2;;
12721;SDS011;6425;50.316;8.114;2024-01-25T18:36:00;19.6;;;4.2;;
12721;SDS011;6425;50.316;8.114;2024-01-25T18:39:00;49.8;;;26;;
12721;SDS011;6425;50.316;8.114;2024-01-25T18:42:00;27;;;7.7;;
12721;SDS011;6425;50.316;8.114;2024-01-25T18:45:01;27;;;7.7;;